createdAt,value
2024-02-19T00:01:31.836Z,13.60
2024-02-19T00:04:00.551Z,13.60
2024-02-19T00:06:29.289Z,13.50
2024-02-19T00:08:57.878Z,13.50
2024-02-19T00:11:27.896Z,13.50
2024-02-19T00:13:57.460Z,13.50
2024-02-19T00:16:26.092Z,14.00
2024-02-19T00:18:55.820Z,13.50
2024-02-19T00:21:24.619Z,13.40
2024-02-19T00:23:53.940Z,13.90
2024-02-19T00:26:22.508Z,13.40
2024-02-19T00:28:53.041Z,13.70
2024-02-19T00:31:21.605Z,13.40
2024-02-19T00:33:50.966Z,13.40
2024-02-19T00:36:22.002Z,13.40
2024-02-19T00:38:50.478Z,13.50
2024-02-19T00:41:20.728Z,13.70
2024-02-19T00:43:49.523Z,13.30
2024-02-19T00:46:19.753Z,13.80
2024-02-19T00:48:48.356Z,13.40
2024-02-19T00:51:17.092Z,13.50
2024-02-19T00:53:45.713Z,13.60
2024-02-19T00:56:15.032Z,13.70
2024-02-19T00:58:43.625Z,13.40
2024-02-19T01:01:12.323Z,13.40
2024-02-19T01:03:45.239Z,13.40
2024-02-19T01:06:13.890Z,13.80
2024-02-19T01:08:42.425Z,13.40
2024-02-19T01:11:12.208Z,13.30
2024-02-19T01:13:42.810Z,13.30
2024-02-19T01:16:11.349Z,13.30
2024-02-19T01:18:39.998Z,13.60
2024-02-19T01:21:10.466Z,13.30
2024-02-19T01:23:38.979Z,13.30
2024-02-19T01:26:07.766Z,13.30
2024-02-19T01:28:37.252Z,13.60
2024-02-19T01:31:06.049Z,13.30
2024-02-19T01:33:34.627Z,13.40
2024-02-19T01:36:03.267Z,13.30
2024-02-19T01:38:33.333Z,13.90
2024-02-19T01:41:01.878Z,13.40
2024-02-19T01:43:30.387Z,13.40
2024-02-19T01:45:58.867Z,13.50
2024-02-19T01:48:27.704Z,13.50
2024-02-19T01:50:56.267Z,13.50
2024-02-19T01:53:26.026Z,13.50
2024-02-19T01:55:57.360Z,13.50
2024-02-19T01:58:26.862Z,13.50
2024-02-19T02:00:59.969Z,13.60
2024-02-19T02:03:30.379Z,13.60
2024-02-19T02:05:59.744Z,13.60
2024-02-19T02:08:28.757Z,13.60
2024-02-19T02:10:58.682Z,13.60
2024-02-19T02:13:27.375Z,13.60
2024-02-19T02:15:55.924Z,13.60
2024-02-19T02:18:24.660Z,13.70
2024-02-19T02:20:53.278Z,14.10
2024-02-19T02:23:22.299Z,13.70
2024-02-19T02:25:50.773Z,13.70
2024-02-19T02:28:21.167Z,13.70
2024-02-19T02:30:49.954Z,14.20
2024-02-19T02:33:18.976Z,13.80
2024-02-19T02:35:47.679Z,13.80
2024-02-19T02:38:16.737Z,13.90
2024-02-19T02:40:45.210Z,13.80
2024-02-19T02:43:13.853Z,13.80
2024-02-19T02:45:43.936Z,13.80
2024-02-19T02:48:13.061Z,13.90
2024-02-19T02:50:41.671Z,14.30
2024-02-19T02:53:10.180Z,13.90
2024-02-19T02:55:39.183Z,13.90
2024-02-19T02:58:07.758Z,13.90
2024-02-19T03:00:36.785Z,14.40
2024-02-19T03:03:07.419Z,13.90
2024-02-19T03:05:35.943Z,13.90
2024-02-19T03:08:04.605Z,14.00
2024-02-19T03:10:33.247Z,14.00
2024-02-19T03:13:01.826Z,14.00
2024-02-19T03:15:30.450Z,14.00
2024-02-19T03:17:59.031Z,13.90
2024-02-19T03:20:29.790Z,13.90
2024-02-19T03:22:58.310Z,13.90
2024-02-19T03:25:26.908Z,13.90
2024-02-19T03:27:55.794Z,13.90
2024-02-19T03:30:24.500Z,13.90
2024-02-19T03:32:53.369Z,13.90
2024-02-19T03:35:22.534Z,14.20
2024-02-19T03:37:52.593Z,13.90
2024-02-19T03:40:21.515Z,14.20
2024-02-19T03:42:50.183Z,14.20
2024-02-19T03:45:19.953Z,13.80
2024-02-19T03:47:48.890Z,13.80
2024-02-19T03:50:17.893Z,13.80
2024-02-19T03:52:46.735Z,14.20
2024-02-19T03:55:16.865Z,13.70
2024-02-19T03:57:45.565Z,13.70
2024-02-19T04:00:15.143Z,13.90
2024-02-19T04:02:43.858Z,13.70
2024-02-19T04:05:12.436Z,13.60
2024-02-19T04:07:41.570Z,13.70
2024-02-19T04:10:10.422Z,14.00
2024-02-19T04:12:40.450Z,13.60
2024-02-19T04:15:09.560Z,13.50
2024-02-19T04:17:38.171Z,13.50
2024-02-19T04:20:08.249Z,14.00
2024-02-19T04:22:36.832Z,13.50
2024-02-19T04:25:06.749Z,13.50
2024-02-19T04:27:35.330Z,13.50
2024-02-19T04:30:06.000Z,13.50
2024-02-19T04:32:34.735Z,13.50
2024-02-19T04:35:03.545Z,13.40
2024-02-19T04:37:32.763Z,13.90
2024-02-19T04:40:01.330Z,13.40
2024-02-19T04:42:29.829Z,13.40
2024-02-19T04:44:58.785Z,13.40
2024-02-19T04:47:28.677Z,13.40
2024-02-19T04:49:57.731Z,13.40
2024-02-19T04:52:26.430Z,13.40
2024-02-19T04:54:55.074Z,13.90
2024-02-19T04:57:24.733Z,13.40
2024-02-19T04:59:54.111Z,13.40
2024-02-19T05:02:23.163Z,13.60
2024-02-19T05:04:53.248Z,13.40
2024-02-19T05:07:21.833Z,13.30
2024-02-19T05:09:51.183Z,13.60
2024-02-19T05:12:20.165Z,13.20
2024-02-19T05:14:49.281Z,13.20
2024-02-19T05:17:17.791Z,13.30
2024-02-19T05:19:48.028Z,13.60
2024-02-19T05:22:18.290Z,13.20
2024-02-19T05:24:48.251Z,13.20
2024-02-19T05:27:17.428Z,13.20
2024-02-19T05:29:45.947Z,13.20
2024-02-19T05:32:19.141Z,13.20
2024-02-19T05:34:49.050Z,13.20
2024-02-19T05:37:20.073Z,13.50
2024-02-19T05:39:48.762Z,13.50
2024-02-19T05:42:17.408Z,13.60
2024-02-19T05:44:46.209Z,13.20
2024-02-19T05:47:14.994Z,13.10
2024-02-19T05:49:46.263Z,13.10
2024-02-19T05:52:15.160Z,13.10
2024-02-19T05:54:46.231Z,13.10
2024-02-19T05:57:15.572Z,13.20
2024-02-19T05:59:44.207Z,13.10
2024-02-19T06:02:12.870Z,13.60
2024-02-19T06:04:41.645Z,13.10
2024-02-19T06:07:10.343Z,13.20
2024-02-19T06:09:41.226Z,13.40
2024-02-19T06:12:12.869Z,13.10
2024-02-19T06:14:41.517Z,13.10
2024-02-19T06:17:10.350Z,13.20
2024-02-19T06:19:42.421Z,13.20
2024-02-19T06:22:15.269Z,13.30
2024-02-19T06:24:45.202Z,13.30
2024-02-19T06:27:15.108Z,13.30
2024-02-19T06:29:43.652Z,13.80
2024-02-19T06:32:12.141Z,13.20
2024-02-19T06:34:44.386Z,13.20
2024-02-19T06:37:13.966Z,13.20
2024-02-19T06:39:42.876Z,13.20
2024-02-19T06:42:11.585Z,13.10
2024-02-19T06:44:41.927Z,13.10
2024-02-19T06:47:12.762Z,13.60
2024-02-19T06:49:42.307Z,13.10
2024-02-19T06:52:11.461Z,13.20
2024-02-19T06:54:46.900Z,13.10
2024-02-19T06:57:17.318Z,13.50
2024-02-19T06:59:49.684Z,12.80
2024-02-19T07:02:18.493Z,13.40
2024-02-19T07:04:48.364Z,13.40
2024-02-19T07:07:20.444Z,13.10
2024-02-19T07:10:05.167Z,13.40
2024-02-19T07:12:35.320Z,13.00
2024-02-19T07:15:31.767Z,13.30
2024-02-19T07:18:01.682Z,13.10
2024-02-19T07:20:30.415Z,13.10
2024-02-19T07:22:59.146Z,13.20
2024-02-19T07:25:29.967Z,13.50
2024-02-19T07:27:58.679Z,13.20
2024-02-19T07:30:27.453Z,13.20
2024-02-19T07:33:53.515Z,13.20
2024-02-19T07:36:27.938Z,13.20
2024-02-19T07:38:58.880Z,13.20
2024-02-19T07:41:32.350Z,13.20
2024-02-19T07:44:06.799Z,13.20
2024-02-19T07:51:35.369Z,13.20
2024-02-19T07:55:18.551Z,13.30
2024-02-19T07:58:31.024Z,13.30
2024-02-19T08:02:21.254Z,13.40
2024-02-19T08:09:28.462Z,13.50
2024-02-19T08:12:56.909Z,13.20
2024-02-19T08:15:55.667Z,13.60
2024-02-19T08:19:37.994Z,13.70
2024-02-19T08:25:13.724Z,13.80
2024-02-19T08:32:31.602Z,14.00
2024-02-19T08:35:30.445Z,14.10
2024-02-19T08:42:30.837Z,14.30
2024-02-19T08:45:00.202Z,14.30
2024-02-19T08:47:30.868Z,14.30
2024-02-19T08:50:00.753Z,14.30
2024-02-19T08:52:30.945Z,14.70
2024-02-19T08:55:00.323Z,14.50
2024-02-19T08:57:33.730Z,14.60
2024-02-19T09:00:35.970Z,14.90
2024-02-19T09:03:07.640Z,14.70
2024-02-19T09:05:44.178Z,14.80
2024-02-19T09:08:22.475Z,14.80
2024-02-19T09:11:24.820Z,14.90
2024-02-19T09:14:10.185Z,14.60
2024-02-19T09:16:46.159Z,15.00
2024-02-19T09:19:20.697Z,15.10
2024-02-19T09:22:18.657Z,15.10
2024-02-19T09:24:49.039Z,15.50
2024-02-19T09:27:21.508Z,15.30
2024-02-19T09:29:50.354Z,15.30
2024-02-19T09:32:19.133Z,15.40
2024-02-19T09:34:56.028Z,15.50
2024-02-19T09:37:26.777Z,15.50
2024-02-19T09:39:59.584Z,15.80
2024-02-19T09:42:29.232Z,16.10
2024-02-19T09:44:58.539Z,15.60
2024-02-19T09:47:35.047Z,15.90
2024-02-19T09:50:07.203Z,15.60
2024-02-19T09:52:36.932Z,15.60
2024-02-19T09:55:08.696Z,15.60
2024-02-19T09:57:38.772Z,15.60
2024-02-19T10:00:10.978Z,15.80
2024-02-19T10:02:41.798Z,15.50
2024-02-19T10:05:15.875Z,15.20
2024-02-19T10:07:45.455Z,15.50
2024-02-19T10:10:20.563Z,15.50
2024-02-19T10:13:23.046Z,15.50
2024-02-19T10:15:57.654Z,15.50
2024-02-19T10:26:55.435Z,15.50
2024-02-19T10:29:27.162Z,15.50
2024-02-19T10:32:12.186Z,15.50
2024-02-19T10:34:45.633Z,15.20
2024-02-19T10:37:19.855Z,15.60
2024-02-19T10:39:51.618Z,15.30
2024-02-19T10:55:49.592Z,15.60
2024-02-19T10:58:29.320Z,16.10
2024-02-19T11:03:54.971Z,15.80
2024-02-19T11:06:26.206Z,15.80
2024-02-19T11:08:57.204Z,15.80
2024-02-19T11:11:28.270Z,15.90
2024-02-19T11:14:04.749Z,15.80
2024-02-19T11:16:38.221Z,16.00
2024-02-19T11:19:20.380Z,15.80
2024-02-19T11:21:49.860Z,15.80
2024-02-19T11:28:23.187Z,15.90
2024-02-19T11:53:53.514Z,16.10
2024-02-19T11:56:52.648Z,16.10
2024-02-19T11:59:35.641Z,16.10
2024-02-19T12:02:07.224Z,15.70
2024-02-19T12:07:48.453Z,16.30
2024-02-19T12:10:21.404Z,16.30
2024-02-19T12:12:55.709Z,16.30
2024-02-19T12:18:36.473Z,16.30
2024-02-19T12:51:33.330Z,16.40
2024-02-19T12:54:02.161Z,16.30
2024-02-19T12:56:37.170Z,16.60
2024-02-19T12:59:06.341Z,16.30
2024-02-19T13:02:02.143Z,16.30
2024-02-19T13:09:46.096Z,16.40
2024-02-19T15:18:50.346Z,16.70
2024-02-19T15:22:40.017Z,16.30
2024-02-19T15:37:50.415Z,16.70
2024-02-19T15:40:23.989Z,16.20
2024-02-19T15:42:55.998Z,16.60
2024-02-19T15:45:28.429Z,16.60
2024-02-19T15:48:05.866Z,16.50
2024-02-19T15:51:00.342Z,16.50
2024-02-19T17:08:27.368Z,15.60
2024-02-19T17:11:00.811Z,15.60
2024-02-19T17:16:51.242Z,15.50
2024-02-19T20:19:53.623Z,14.70
2024-02-19T21:08:23.828Z,14.40
2024-02-19T21:11:06.377Z,14.40
2024-02-19T21:13:36.585Z,14.70
2024-02-19T21:16:09.397Z,14.70
2024-02-19T21:18:46.596Z,14.40
2024-02-19T21:21:27.072Z,14.70
2024-02-19T21:24:59.528Z,14.70
2024-02-19T21:27:33.944Z,14.40
2024-02-19T21:30:04.949Z,14.40
2024-02-19T21:32:39.034Z,14.90
2024-02-19T21:35:11.581Z,14.70
2024-02-19T21:38:59.721Z,14.40
2024-02-19T21:41:30.610Z,14.40
2024-02-19T21:44:00.808Z,14.40
2024-02-19T21:46:55.097Z,14.40
2024-02-19T21:49:25.334Z,14.00
2024-02-19T21:51:55.084Z,14.30
2024-02-19T21:54:24.588Z,14.60
2024-02-19T21:56:53.669Z,14.30
2024-02-19T21:59:25.009Z,14.40
2024-02-19T22:01:59.576Z,14.30
2024-02-19T22:04:53.438Z,14.60
2024-02-19T22:07:22.527Z,14.30
2024-02-19T22:09:52.546Z,14.30
2024-02-19T22:13:36.958Z,14.30
2024-02-19T22:16:08.262Z,14.30
2024-02-19T22:18:38.040Z,14.30
2024-02-19T22:21:10.988Z,14.30
2024-02-19T22:23:40.500Z,14.60
2024-02-19T22:26:10.020Z,14.40
2024-02-19T22:29:05.239Z,14.30
2024-02-19T22:31:35.954Z,14.30
2024-02-19T22:34:05.789Z,14.60
2024-02-19T22:36:41.121Z,14.40
2024-02-19T22:39:10.835Z,14.60
2024-02-19T22:41:43.190Z,14.30
2024-02-19T22:44:11.917Z,14.30
2024-02-19T22:46:42.491Z,14.30
2024-02-19T22:49:13.059Z,14.60
2024-02-19T22:51:42.561Z,14.30
2024-02-19T22:54:11.861Z,14.30
2024-02-19T22:56:40.713Z,14.60
2024-02-19T22:59:35.715Z,14.20
2024-02-19T23:02:06.017Z,13.80
2024-02-19T23:04:34.740Z,14.40
2024-02-19T23:07:04.483Z,14.50
2024-02-19T23:09:34.155Z,14.20
2024-02-19T23:12:03.082Z,14.20
2024-02-19T23:14:32.132Z,14.20
2024-02-19T23:17:00.925Z,14.50
2024-02-19T23:19:31.011Z,14.10
2024-02-19T23:22:00.432Z,14.10
2024-02-19T23:24:29.222Z,14.40
2024-02-19T23:27:02.668Z,14.40
2024-02-19T23:29:31.773Z,14.10
2024-02-19T23:32:01.625Z,14.40
2024-02-19T23:34:31.911Z,14.40
2024-02-19T23:37:04.653Z,14.40
2024-02-19T23:39:38.584Z,14.00
2024-02-19T23:42:07.764Z,14.30
2024-02-19T23:44:37.411Z,14.00
2024-02-19T23:47:06.772Z,14.00
2024-02-19T23:49:39.365Z,13.90
2024-02-19T23:52:08.497Z,14.30
2024-02-19T23:54:41.209Z,14.00
2024-02-19T23:57:10.342Z,14.20
